Time;durP1;ratioP1;P1;durP2;ratioP2;P2;SDS_P1;SDS_P2;PMS_P1;PMS_P2;Temp;Humidity;BMP_temperature;BMP_pressure;BME280_temperature;BME280_humidity;BME280_pressure;Samples;Min_cycle;Max_cycle;Signal;HPM_P1;HPM_P2
2022/07/02 00:14:58;;;;;;;2.95;2.47;;;;;;;24.14;61.86;100226.31;1780331;107;26308;-81
2022/07/02 00:23:03;;;;;;;3.15;2.67;;;;;;;24.11;62.33;100221.09;1817094;106;25949;-83
2022/07/02 00:26:50;;;;;;;7.22;3.98;;;;;;;23.96;62.86;100234.92;1839418;101;26164;-81
2022/07/02 00:30:48;;;;;;;3.58;3.27;;;;;;;23.69;63.42;100239.37;1907544;100;25939;-80
2022/07/02 00:39:31;;;;;;;8.38;3.72;;;;;;;23.93;63.92;100154.70;2057008;93;25760;-81
2022/07/02 00:42:59;;;;;;;4.78;3.70;;;;;;;24.08;63.86;100191.90;2059333;93;25834;-83
2022/07/02 00:46:40;;;;;;;5.28;3.25;;;;;;;24.10;63.87;100148.78;2001140;97;25800;-81
2022/07/02 00:50:23;;;;;;;4.87;4.22;;;;;;;24.19;63.93;100157.75;2017101;94;25903;-82
2022/07/02 00:58:13;;;;;;;5.95;4.75;;;;;;;24.40;63.90;100205.45;2048825;94;25911;-82
2022/07/02 01:01:37;;;;;;;6.75;4.28;;;;;;;24.37;64.02;100243.30;2056509;94;25976;-82
2022/07/02 01:05:07;;;;;;;4.50;4.15;;;;;;;23.95;64.51;100267.80;2059502;93;25801;-83
2022/07/02 01:13:01;;;;;;;6.40;5.12;;;;;;;23.65;66.01;100235.05;2025360;95;25933;-82
2022/07/02 01:16:42;;;;;;;;;;;;;;;;;;;;;
2022/07/02 01:20:22;;;;;;;7.60;4.80;;;;;;;23.70;66.60;100234.02;1972743;99;25809;-82
2022/07/02 01:24:11;;;;;;;6.00;5.45;;;;;;;23.81;66.64;100224.34;1990866;96;25834;-82
2022/07/02 01:27:47;;;;;;;7.65;7.00;;;;;;;23.97;66.53;100230.89;2011520;95;25725;-82
2022/07/02 01:32:09;;;;;;;7.65;6.45;;;;;;;23.99;66.74;100238.34;2034491;96;25807;-81
2022/07/02 01:36:02;;;;;;;8.50;7.60;;;;;;;23.88;66.92;100232.52;1919445;102;26001;-82
2022/07/02 01:40:11;;;;;;;8.75;7.65;;;;;;;23.93;67.11;100245.23;1921248;99;25935;-83
2022/07/02 01:48:30;;;;;;;9.73;8.35;;;;;;;23.83;67.53;100238.48;1923029;101;25894;-81
2022/07/02 01:51:58;;;;;;;9.28;8.48;;;;;;;23.97;67.74;100240.67;1915864;100;26028;-81
2022/07/02 01:55:30;;;;;;;11.68;9.03;;;;;;;24.03;67.96;100252.45;1960882;100;26387;-81
2022/07/02 01:59:06;;;;;;;;;;;;;;;;;;;;;
2022/07/02 02:06:48;;;;;;;11.38;10.30;;;;;;;23.87;68.39;100291.16;1867557;103;26324;-81
2022/07/02 02:10:16;;;;;;;14.45;10.32;;;;;;;23.71;68.81;100310.74;1872773;103;25818;-82
2022/07/02 02:13:39;;;;;;;13.40;9.93;;;;;;;23.64;69.12;100307.37;1865690;103;26092;-82
2022/07/02 02:17:03;;;;;;;13.88;9.88;;;;;;;23.57;69.47;100292.05;1872324;103;25878;-82
2022/07/02 02:20:49;;;;;;;10.13;9.28;;;;;;;23.59;69.64;100293.34;1857492;103;26143;-82
2022/07/02 02:24:37;;;;;;;;;;;;;;;23.62;69.80;100293.22;1845901;105;26060;-82
2022/07/02 02:28:15;;;;;;;9.98;9.08;;;;;;;23.68;69.63;100287.75;1829319;104;25848;-82
2022/07/02 02:31:55;;;;;;;11.55;9.38;;;;;;;23.85;69.44;100304.97;1821335;104;25896;-81
2022/07/02 02:35:20;;;;;;;16.90;10.70;;;;;;;23.88;69.34;100308.87;1891323;101;25941;-81
2022/07/02 02:38:50;;;;;;;13.48;10.38;;;;;;;23.74;69.42;100307.98;1960936;97;25942;-81
2022/07/02 02:42:10;;;;;;;14.23;10.20;;;;;;;23.67;69.56;100311.73;1945229;98;26280;-82
2022/07/02 02:45:57;;;;;;;;;;;;;;;;;;;;;
2022/07/02 02:49:32;;;;;;;11.85;9.45;;;;;;;23.46;70.31;100329.23;1929569;99;25756;-80
2022/07/02 02:53:14;;;;;;;17.10;9.63;;;;;;;23.32;70.77;100316.32;1955073;98;25940;-81
2022/07/02 03:00:46;;;;;;;13.45;10.65;;;;;;;23.27;71.14;100295.19;1866963;103;26154;-82
2022/07/02 03:04:07;;;;;;;11.57;9.23;;;;;;;23.43;70.97;100295.61;1915847;102;25849;-81
2022/07/02 03:07:34;;;;;;;10.23;9.33;;;;;;;23.40;71.04;100286.39;1910978;102;25788;-81
2022/07/02 03:10:54;;;;;;;12.28;8.33;;;;;;;23.51;70.93;100258.97;1916852;100;25968;-81
2022/07/02 03:14:18;;;;;;;10.38;9.48;;;;;;;23.67;70.64;100248.72;1926058;100;25931;-81
2022/07/02 03:17:45;;;;;;;10.93;9.95;;;;;;;23.84;70.42;100256.19;1925574;101;25950;-81
2022/07/02 03:21:05;;;;;;;11.70;9.48;;;;;;;23.94;70.01;100250.97;1923514;101;25869;-81
2022/07/02 03:28:20;;;;;;;10.68;9.68;;;;;;;24.09;69.79;100250.02;1915579;100;26074;-82
2022/07/02 03:31:49;;;;;;;15.30;10.23;;;;;;;24.12;69.51;100277.89;1996734;94;25840;-82
2022/07/02 03:39:30;;;;;;;18.77;10.82;;;;;;;24.18;69.61;100259.05;1990746;96;25723;-82
2022/07/02 03:43:07;;;;;;;10.65;9.48;;;;;;;24.32;69.21;100274.08;2038521;95;25854;-81
2022/07/02 03:46:59;;;;;;;12.05;8.20;;;;;;;24.47;68.81;100286.91;1982379;98;25876;-81
2022/07/02 03:50:27;;;;;;;10.63;7.92;;;;;;;24.60;68.04;100293.98;1975249;98;25884;-82
2022/07/02 03:53:52;;;;;;;9.50;7.10;;;;;;;24.69;67.44;100312.80;1970342;98;25769;-82
2022/07/02 03:57:32;;;;;;;;;;;;;;;;;;;;;
2022/07/02 04:04:46;;;;;;;11.10;7.60;;;;;;;24.64;66.25;100333.42;1969664;98;25962;-82
2022/07/02 04:08:54;;;;;;;7.28;6.45;;;;;;;24.63;66.16;100347.66;1973041;99;25953;-81
2022/07/02 04:16:34;;;;;;;10.45;6.83;;;;;;;24.69;65.73;100327.45;1821963;105;25794;-82
2022/07/02 04:21:01;;;;;;;;;;;;;;;;;;;;;
2022/07/02 04:24:20;;;;;;;8.03;7.47;;;;;;;24.58;65.63;100330.97;1852043;104;25955;-81
2022/07/02 04:28:10;;;;;;;11.12;6.42;;;;;;;24.55;65.46;100330.61;1859387;104;25857;-81
2022/07/02 04:31:40;;;;;;;14.53;8.40;;;;;;;24.58;65.30;100329.17;1859820;104;26022;-82
2022/07/02 04:35:20;;;;;;;10.55;8.30;;;;;;;24.66;65.14;100315.09;1856986;104;25836;-82
2022/07/02 04:38:40;;;;;;;14.87;9.88;;;;;;;24.73;64.83;100326.41;1810308;106;25906;-82
2022/07/02 04:42:10;;;;;;;14.78;10.32;;;;;;;24.79;64.46;100356.00;1812018;106;25973;-82
2022/07/02 04:45:50;;;;;;;16.93;10.35;;;;;;;24.75;64.06;100365.90;1861213;104;25884;-82
2022/07/02 04:49:11;;;;;;;12.30;9.60;;;;;;;24.68;63.93;100361.24;1940246;100;25748;-84
2022/07/02 04:52:47;;;;;;;;;;;;;;;;;;;;;
2022/07/02 04:56:34;;;;;;;16.35;9.13;;;;;;;24.62;63.77;100381.91;1922544;99;26216;-82
2022/07/02 05:00:08;;;;;;;13.62;7.72;;;;;;;24.63;63.58;100392.51;1941566;99;25884;-80
2022/07/02 05:03:37;;;;;;;10.68;6.80;;;;;;;24.63;63.47;100395.64;1916888;100;25696;-82
2022/07/02 05:11:05;;;;;;;;;;;;;;;;;;;;;
2022/07/02 05:14:32;;;;;;;8.45;3.85;;;;;;;24.73;63.05;100406.39;1976366;97;25917;-82
2022/07/02 05:18:16;;;;;;;4.78;3.77;;;;;;;24.89;62.41;100410.28;1932518;99;25913;-81
2022/07/02 05:22:13;;;;;;;5.35;3.67;;;;;;;24.94;62.05;100416.34;1931029;99;26046;-81
2022/07/02 05:25:55;;;;;;;6.22;3.70;;;;;;;25.15;61.80;100417.86;1825072;106;26406;-81
2022/07/02 05:29:41;;;;;;;5.05;3.12;;;;;;;25.36;61.05;100429.55;1800768;108;25843;-81
2022/07/02 05:37:48;;;;;;;3.62;3.25;;;;;;;25.41;60.47;100435.56;1705501;114;25950;-82
2022/07/02 05:41:55;;;;;;;;;;;;;;;;;;;;;
2022/07/02 05:46:00;;;;;;;5.22;4.17;;;;;;;25.48;59.97;100452.23;1706684;114;25439;-81
2022/07/02 05:53:40;;;;;;;4.80;4.40;;;;;;;25.51;59.41;100457.45;1715178;112;25952;-82
2022/07/02 05:57:05;;;;;;;7.37;3.72;;;;;;;25.39;59.33;100466.80;1729211;112;26478;-82
2022/07/02 06:04:02;;;;;;;6.65;4.55;;;;;;;25.31;59.39;100455.08;1726673;111;25981;-81
2022/07/02 06:11:11;;;;;;;5.87;5.00;;;;;;;25.21;59.37;100458.97;1807479;106;26558;-81
2022/07/02 06:26:10;;;;;;;6.12;4.70;;;;;;;25.32;58.97;100463.48;1717046;112;26277;-81
2022/07/02 06:30:08;;;;;;;5.83;4.37;;;;;;;25.39;58.83;100473.47;1724238;111;25974;-81
2022/07/02 06:37:39;;;;;;;3.83;3.37;;;;;;;25.35;58.92;100499.87;1772066;108;25856;-82
2022/07/02 06:45:01;;;;;;;5.33;3.72;;;;;;;25.28;59.02;100512.55;1797636;106;25799;-82
2022/07/02 06:48:44;;;;;;;2.98;2.77;;;;;;;25.32;59.00;100519.98;1788211;104;26750;-81
2022/07/02 06:52:29;;;;;;;3.30;2.80;;;;;;;25.30;59.07;100524.03;1814272;105;26696;-82
2022/07/02 06:56:28;;;;;;;5.20;3.05;;;;;;;25.29;59.18;100526.77;1859502;103;26397;-80
2022/07/02 07:00:39;;;;;;;2.70;1.40;;;;;;;25.15;59.44;100543.25;1907061;101;25522;-80
2022/07/02 07:04:29;;;;;;;;;;;;;;;;;;;;;
2022/07/02 07:08:32;;;;;;;1.65;1.20;;;;;;;24.81;59.78;100547.48;1869463;101;25889;-82
2022/07/02 07:12:26;;;;;;;1.30;1.10;;;;;;;24.70;60.12;100559.80;1863946;102;25945;-82
2022/07/02 07:16:26;;;;;;;;;;;;;;;;;;;;;
2022/07/02 07:19:46;;;;;;;1.27;1.17;;;;;;;24.55;60.40;100577.62;2020026;94;25903;-82
2022/07/02 07:23:33;;;;;;;2.55;2.10;;;;;;;24.52;60.62;100580.38;2015893;97;25800;-82
2022/07/02 07:27:25;;;;;;;3.92;1.95;;;;;;;24.59;60.71;100585.93;2022992;95;25813;-82
2022/07/02 07:31:27;;;;;;;4.22;2.50;;;;;;;24.63;60.58;100591.57;1997108;97;25888;-81
2022/07/02 07:39:06;;;;;;;;;;;;;;;;;;;;;
2022/07/02 07:42:28;;;;;;;;;;;;;;;;;;;;;
2022/07/02 07:54:38;;;;;;;3.35;3.10;;;;;;;24.62;60.61;100615.16;1911246;100;26999;-81
2022/07/02 07:59:07;;;;;;;3.47;3.22;;;;;;;24.50;60.83;100625.28;1953823;98;25866;-82
2022/07/02 08:02:30;;;;;;;2.98;2.77;;;;;;;24.56;60.99;100637.53;1945780;98;26316;-82
2022/07/02 08:06:02;;;;;;;3.60;3.30;;;;;;;24.65;60.80;100633.73;1954685;99;26353;-82
2022/07/02 08:09:34;;;;;;;3.42;3.10;;;;;;;24.66;60.71;100646.13;1863037;104;25967;-82
2022/07/02 08:16:58;;;;;;;;;;;;;;;;;;;;;
2022/07/02 08:24:25;;;;;;;4.67;3.37;;;;;;;24.63;60.42;100659.09;1763089;109;26198;-82
2022/07/02 08:27:53;;;;;;;3.90;3.60;;;;;;;24.63;60.44;100648.89;1724077;111;25809;-81
2022/07/02 08:31:30;;;;;;;4.28;3.85;;;;;;;24.72;60.07;100648.16;1770152;109;26214;-81
2022/07/02 08:35:10;;;;;;;4.08;3.77;;;;;;;24.73;59.97;100651.22;1764332;109;26910;-82
2022/07/02 08:39:02;;;;;;;4.78;3.42;;;;;;;24.74;59.92;100642.33;1752362;109;25642;-82
2022/07/02 08:42:50;;;;;;;;;;;;;;;;;;;;;
2022/07/02 08:50:44;;;;;;;;;;;;;;;24.71;59.90;100665.55;1727406;112;25956;-82
2022/07/02 08:54:25;;;;;;;7.30;4.10;;;;;;;24.62;59.84;100664.48;1789305;105;25926;-82
2022/07/02 08:58:11;;;;;;;4.45;4.05;;;;;;;24.54;60.22;100666.52;1851620;104;25973;-83
2022/07/02 09:02:10;;;;;;;5.12;3.70;;;;;;;24.50;60.08;100663.94;1850846;104;26392;-82
2022/07/02 09:10:02;;;;;;;3.85;3.45;;;;;;;24.61;59.98;100672.94;1848219;105;25879;-83
2022/07/02 09:21:12;;;;;;;4.30;2.72;;;;;;;24.77;59.56;100680.46;1805832;107;26060;-84
2022/07/02 09:30:02;;;;;;;2.40;2.20;;;;;;;24.73;59.23;100691.68;1721106;113;26005;-76
2022/07/02 09:40:00;;;;;;;;;;;;;;;;;;;;;
2022/07/02 09:44:06;;;;;;;;;;;;;;;;;;;;;
2022/07/02 09:53:41;;;;;;;2.60;0.88;;;;;;;24.33;59.58;100703.92;1731094;111;25937;-80
2022/07/02 09:57:46;;;;;;;;;;;;;;;;;;;;;
2022/07/02 10:01:55;;;;;;;;;;;;;;;24.33;59.49;100696.80;1699212;114;26473;-81
2022/07/02 10:06:00;;;;;;;0.62;0.60;;;;;;;24.36;59.28;100690.05;1724720;113;25949;-77
2022/07/02 10:09:39;;;;;;;3.12;0.70;;;;;;;24.46;59.33;100698.23;1727131;113;26349;-78
2022/07/02 10:13:14;;;;;;;;;;;;;;;;;;;;;
2022/07/02 10:16:37;;;;;;;0.73;0.73;;;;;;;24.69;58.91;100699.36;1690375;113;25899;-79
2022/07/02 10:21:04;;;;;;;;;;;;;;;;;;;;;
2022/07/02 10:25:13;;;;;;;1.07;0.50;;;;;;;24.68;58.72;100711.83;1821211;107;25882;-79
2022/07/02 10:28:45;;;;;;;0.68;0.55;;;;;;;24.67;58.59;100725.19;1816071;106;26602;-79
2022/07/02 10:37:05;;;;;;;1.30;0.47;;;;;;;24.65;58.68;100723.04;1820921;104;25950;-80
2022/07/02 10:40:56;;;;;;;2.72;0.62;;;;;;;24.62;58.36;100729.80;1818636;107;26277;-80
2022/07/02 10:44:19;;;;;;;1.00;0.60;;;;;;;24.57;58.18;100731.70;1815044;107;26079;-78
2022/07/02 10:48:21;;;;;;;2.67;0.60;;;;;;;24.59;57.86;100735.21;1816108;107;25896;-80
2022/07/02 10:51:43;;;;;;;0.72;0.40;;;;;;;24.58;57.78;100735.67;1827846;106;26091;-80
2022/07/02 10:55:31;;;;;;;0.68;0.37;;;;;;;24.69;57.69;100737.56;1824922;107;25547;-80
2022/07/02 10:59:36;;;;;;;0.95;0.50;;;;;;;24.64;57.31;100735.97;1812196;105;25814;-87
2022/07/02 11:03:40;;;;;;;0.98;0.60;;;;;;;24.60;57.15;100738.28;1847386;104;26002;-83
2022/07/02 11:07:58;;;;;;;;;;;;;;;;;;;;;
2022/07/02 11:12:09;;;;;;;5.62;0.70;;;;;;;24.53;56.93;100742.91;1792836;107;26242;-79
2022/07/02 11:15:47;;;;;;;1.92;0.70;;;;;;;24.45;56.67;100743.14;1786795;107;25897;-82
2022/07/02 11:19:58;;;;;;;;;;;;;;;;;;;;;
2022/07/02 11:23:48;;;;;;;;;;;;;;;;;;;;;
2022/07/02 11:27:23;;;;;;;4.03;0.90;;;;;;;24.97;56.53;100742.06;1785370;108;26675;-83
2022/07/02 11:31:17;;;;;;;4.33;1.15;;;;;;;25.19;55.83;100749.01;1799493;107;25953;-84
2022/07/02 11:39:18;;;;;;;1.45;0.90;;;;;;;25.39;55.02;100755.05;1794693;103;25943;-81
2022/07/02 11:42:44;;;;;;;1.15;0.98;;;;;;;25.46;54.70;100761.08;1780009;108;25832;-83
2022/07/02 11:46:05;;;;;;;1.42;0.90;;;;;;;25.51;54.48;100762.65;1784276;107;25855;-82
2022/07/02 11:49:56;;;;;;;2.77;1.32;;;;;;;25.54;54.39;100763.02;1851237;104;26224;-86
2022/07/02 11:58:12;;;;;;;;;;;;;;;;;;;;;
2022/07/02 12:01:56;;;;;;;;;;;;;;;;;;;;;
2022/07/02 12:05:49;;;;;;;1.87;0.82;;;;;;;25.56;54.43;100776.73;1759643;108;26071;-86
2022/07/02 12:09:27;;;;;;;4.62;0.88;;;;;;;25.69;54.58;100786.57;1801491;105;26754;-83
2022/07/02 12:13:08;;;;;;;2.17;1.00;;;;;;;25.72;54.26;100791.81;1797412;106;26041;-82
2022/07/02 12:16:43;;;;;;;3.45;1.20;;;;;;;25.75;54.71;100797.06;1788056;107;25777;-81
2022/07/02 12:20:28;;;;;;;2.10;1.07;;;;;;;25.67;54.65;100798.62;1810901;105;25939;-81
2022/07/02 12:24:41;;;;;;;4.45;1.05;;;;;;;25.75;54.17;100808.17;1816708;104;25863;-82
2022/07/02 12:31:57;;;;;;;3.02;0.85;;;;;;;25.73;54.20;100813.58;1845662;104;25865;-83
2022/07/02 12:39:18;;;;;;;1.20;1.03;;;;;;;25.79;53.59;100806.71;1859156;103;25606;-81
2022/07/02 12:43:06;;;;;;;1.17;0.90;;;;;;;25.62;53.52;100804.58;1865153;103;26109;-82
2022/07/02 12:46:56;;;;;;;0.93;0.82;;;;;;;25.48;53.60;100808.59;1911106;100;25781;-82
2022/07/02 12:50:28;;;;;;;0.98;0.90;;;;;;;25.40;53.51;100809.71;2004949;95;26107;-79
2022/07/02 12:54:14;;;;;;;1.40;0.68;;;;;;;25.32;53.68;100811.75;2081977;91;25857;-80
2022/07/02 12:57:45;;;;;;;1.22;0.82;;;;;;;25.31;53.71;100819.36;2010045;96;26460;-79
2022/07/02 13:01:28;;;;;;;;;;;;;;;;;;;;;
2022/07/02 13:05:05;;;;;;;1.70;0.62;;;;;;;25.29;53.87;100820.31;2037875;94;25459;-81
2022/07/02 13:08:26;;;;;;;1.95;0.88;;;;;;;25.28;53.70;100811.44;2043967;94;25794;-85
2022/07/02 13:12:14;;;;;;;;;;;;;;;;;;;;;
2022/07/02 13:15:58;;;;;;;0.40;0.40;;;;;;;25.28;53.62;100813.20;2038213;95;25713;-82
2022/07/02 13:19:36;;;;;;;2.27;0.65;;;;;;;25.20;53.59;100810.31;2046861;94;26079;-82
2022/07/02 13:23:29;;;;;;;5.22;0.42;;;;;;;25.14;53.86;100813.20;2036693;94;25955;-82
2022/07/02 13:26:57;;;;;;;2.00;0.50;;;;;;;25.10;53.96;100819.48;2044177;94;25858;-82
2022/07/02 13:34:14;;;;;;;2.02;0.70;;;;;;;24.99;54.05;100820.27;2046000;94;25883;-84
2022/07/02 13:37:56;;;;;;;2.20;0.50;;;;;;;24.98;54.21;100818.06;2056449;94;25966;-83
2022/07/02 13:41:41;;;;;;;1.05;0.60;;;;;;;24.98;54.10;100813.20;2059296;93;25566;-81
2022/07/02 13:45:05;;;;;;;1.72;1.20;;;;;;;24.85;54.20;100814.00;2024134;95;25807;-82
2022/07/02 13:48:28;;;;;;;0.75;0.50;;;;;;;24.73;54.30;100809.87;2005881;96;25938;-81
2022/07/02 13:52:00;;;;;;;6.22;0.75;;;;;;;24.75;54.42;100815.18;2025813;95;26049;-82
2022/07/02 13:56:10;;;;;;;;;;;;;;;;;;;;;
2022/07/02 13:59:35;;;;;;;0.80;0.40;;;;;;;24.68;54.44;100821.14;1917978;100;25679;-81
2022/07/02 14:03:43;;;;;;;5.78;0.53;;;;;;;24.61;54.46;100822.69;1903219;100;25821;-82
2022/07/02 14:07:39;;;;;;;1.05;0.30;;;;;;;24.62;54.21;100828.43;1913606;100;25822;-82
2022/07/02 14:11:12;;;;;;;0.70;0.30;;;;;;;24.54;53.98;100825.11;1888168;101;25896;-82
2022/07/02 14:14:54;;;;;;;;;;;;;;;;;;;;;
2022/07/02 14:18:52;;;;;;;2.80;0.82;;;;;;;24.40;54.34;100835.69;1887256;101;26433;-83
2022/07/02 14:22:53;;;;;;;;;;;;;;;24.38;54.40;100841.92;1912285;98;26218;-82
2022/07/02 14:26:30;;;;;;;1.00;0.40;;;;;;;24.36;54.38;100840.62;1936537;97;25900;-82
2022/07/02 14:30:01;;;;;;;1.07;0.75;;;;;;;24.35;54.42;100838.01;1980162;95;25948;-82
2022/07/02 14:33:44;;;;;;;2.25;0.50;;;;;;;24.36;54.31;100834.42;2008860;94;25803;-83
2022/07/02 14:37:40;;;;;;;;;;;;;;;;;;;;;
2022/07/02 14:45:13;;;;;;;3.55;0.75;;;;;;;24.23;54.36;100837.84;1942413;99;25820;-82
2022/07/02 14:53:08;;;;;;;2.80;0.50;;;;;;;24.25;54.35;100845.36;1918918;100;25990;-81
2022/07/02 14:56:41;;;;;;;;;;;;;;;;;;;;;
2022/07/02 15:00:26;;;;;;;0.60;0.30;;;;;;;24.24;54.34;100835.62;1950069;97;25956;-80
2022/07/02 15:09:16;;;;;;;1.82;0.60;;;;;;;24.18;54.47;100837.11;1946179;99;25796;-81
2022/07/02 15:12:52;;;;;;;2.95;0.70;;;;;;;24.19;54.44;100830.86;1962724;97;25716;-81
2022/07/02 15:16:56;;;;;;;1.07;0.55;;;;;;;24.16;54.61;100833.13;1966662;98;26222;-81
2022/07/02 15:20:46;;;;;;;1.47;0.60;;;;;;;24.27;54.30;100831.55;1976187;97;26294;-83
2022/07/02 15:24:24;;;;;;;2.83;0.40;;;;;;;24.30;54.15;100834.57;2003065;96;26246;-81
2022/07/02 15:28:10;;;;;;;1.85;0.88;;;;;;;24.27;53.93;100838.22;2008438;96;25933;-82
2022/07/02 15:31:36;;;;;;;1.07;0.50;;;;;;;24.26;53.83;100826.66;2011549;96;26112;-83
2022/07/02 15:35:12;;;;;;;2.37;0.60;;;;;;;24.27;53.84;100832.88;2024961;94;25886;-81
2022/07/02 15:43:00;;;;;;;2.05;0.55;;;;;;;24.35;53.47;100830.88;2041553;93;25758;-81
2022/07/02 15:46:34;;;;;;;0.93;0.40;;;;;;;24.44;53.22;100832.02;2068908;92;25758;-81
2022/07/02 15:50:12;;;;;;;0.65;0.50;;;;;;;24.44;53.18;100825.34;2094349;90;25909;-81
2022/07/02 15:57:52;;;;;;;3.80;0.50;;;;;;;24.36;53.23;100831.75;2021430;95;25382;-82
2022/07/02 16:05:41;;;;;;;1.23;0.40;;;;;;;24.24;53.59;100835.62;1986450;96;25782;-84
2022/07/02 16:09:07;;;;;;;1.10;0.60;;;;;;;24.15;53.76;100845.17;1989643;97;25832;-82
2022/07/02 16:13:01;;;;;;;1.30;0.68;;;;;;;24.04;53.88;100842.78;1990715;97;25841;-82
2022/07/02 16:16:40;;;;;;;1.20;0.50;;;;;;;24.02;53.91;100841.47;1979910;97;25525;-81
2022/07/02 16:20:10;;;;;;;5.15;0.75;;;;;;;23.98;54.15;100840.27;1978005;93;26446;-81
2022/07/02 16:23:57;;;;;;;1.55;0.40;;;;;;;24.03;54.21;100845.04;1894274;101;25405;-83
2022/07/02 16:28:06;;;;;;;0.75;0.47;;;;;;;24.00;54.27;100846.44;1926375;97;25729;-82
2022/07/02 16:36:04;;;;;;;1.27;0.60;;;;;;;23.86;54.42;100856.09;1868333;101;26280;-81
2022/07/02 16:39:49;;;;;;;3.52;0.60;;;;;;;23.74;54.65;100854.58;1852096;100;26183;-81
2022/07/02 16:43:22;;;;;;;1.05;0.60;;;;;;;23.70;54.94;100853.37;1914187;100;25876;-81
2022/07/02 16:46:53;;;;;;;1.85;0.53;;;;;;;23.56;55.21;100860.30;1917668;99;25933;-81
2022/07/02 16:50:28;;;;;;;4.05;0.70;;;;;;;23.54;55.51;100853.67;1903085;100;25701;-81
2022/07/02 16:54:07;;;;;;;2.15;0.78;;;;;;;23.51;55.55;100851.08;1902842;100;25805;-81
2022/07/02 17:01:06;;;;;;;;;;;;;;;23.50;55.58;100859.11;1980919;96;25726;-82
2022/07/02 17:05:13;;;;;;;;;;;;;;;;;;;;;
2022/07/02 17:08:39;;;;;;;0.90;0.50;;;;;;;23.44;55.71;100865.89;1927903;98;25836;-83
2022/07/02 17:12:00;;;;;;;4.08;0.80;;;;;;;23.40;55.89;100872.19;1903477;101;25931;-80
2022/07/02 17:15:26;;;;;;;3.65;0.65;;;;;;;23.38;55.97;100863.36;1894707;101;25957;-81
2022/07/02 17:19:11;;;;;;;1.15;0.60;;;;;;;23.41;55.88;100860.63;1893506;102;25776;-83
2022/07/02 17:22:55;;;;;;;2.15;0.75;;;;;;;23.43;55.90;100854.37;1900419;102;26170;-83
2022/07/02 17:26:46;;;;;;;;;;;;;;;;;;;;;
2022/07/02 17:30:01;;;;;;;0.95;0.72;;;;;;;23.40;55.81;100851.77;1899414;101;26185;-82
2022/07/02 17:33:27;;;;;;;4.87;0.60;;;;;;;23.39;55.53;100846.47;1905275;101;26164;-83
2022/07/02 17:37:05;;;;;;;1.37;0.60;;;;;;;23.44;55.40;100841.94;1921013;101;26389;-81
2022/07/02 17:40:59;;;;;;;2.72;0.70;;;;;;;23.45;55.22;100837.03;1978270;97;25738;-82
2022/07/02 17:44:35;;;;;;;3.52;0.75;;;;;;;23.47;55.12;100829.44;1953824;98;25884;-80
2022/07/02 17:48:15;;;;;;;0.78;0.40;;;;;;;23.50;54.92;100830.70;2025954;94;25903;-81
2022/07/02 17:51:43;;;;;;;2.05;0.47;;;;;;;23.55;54.71;100834.58;2012946;95;25714;-83
2022/07/02 17:55:23;;;;;;;1.12;0.60;;;;;;;23.54;54.50;100831.05;2003404;96;25883;-81
2022/07/02 17:59:11;;;;;;;2.40;0.70;;;;;;;23.54;54.47;100835.04;2136530;88;26178;-80
2022/07/02 18:02:39;;;;;;;5.97;1.00;;;;;;;23.54;54.48;100833.70;2119295;91;25989;-83
2022/07/02 18:06:15;;;;;;;3.67;0.95;;;;;;;23.51;54.51;100835.11;2102147;92;26334;-83
2022/07/02 18:09:41;;;;;;;4.45;1.20;;;;;;;23.46;54.55;100830.82;2132877;91;25932;-80
2022/07/02 18:13:07;;;;;;;6.65;1.02;;;;;;;23.45;54.53;100832.58;2100446;91;25991;-78
2022/07/02 18:16:28;;;;;;;2.70;1.40;;;;;;;23.39;54.51;100828.75;2014248;97;26091;-75
2022/07/02 18:19:54;;;;;;;4.58;1.12;;;;;;;23.45;54.46;100825.92;2009431;97;26121;-74
2022/07/02 18:23:23;;;;;;;4.47;1.55;;;;;;;23.53;54.25;100821.78;1996138;97;25861;-75
2022/07/02 18:26:48;;;;;;;3.52;1.30;;;;;;;23.55;54.14;100825.27;1986216;97;25800;-73
2022/07/02 18:30:11;;;;;;;6.87;1.17;;;;;;;23.60;53.99;100821.19;2007085;95;25327;-76
2022/07/02 18:33:32;;;;;;;8.88;1.05;;;;;;;23.67;53.81;100822.33;2051645;94;25908;-72
2022/07/02 18:37:06;;;;;;;;;;;;;;;;;;;;;
2022/07/02 18:40:26;;;;;;;1.72;1.00;;;;;;;23.68;53.14;100816.12;2065120;92;26679;-75
2022/07/02 18:43:47;;;;;;;1.40;1.05;;;;;;;23.59;53.38;100822.98;2029578;95;25914;-75
2022/07/02 18:47:08;;;;;;;2.25;0.98;;;;;;;23.57;53.38;100823.45;2046680;95;25924;-78
2022/07/02 18:50:29;;;;;;;1.47;0.90;;;;;;;23.53;53.26;100819.13;2036786;96;26012;-77
2022/07/02 18:53:50;;;;;;;1.77;0.80;;;;;;;23.46;53.41;100818.38;2052704;93;26110;-72
2022/07/02 18:57:11;;;;;;;1.20;0.70;;;;;;;23.50;53.38;100817.39;2044287;93;25969;-73
2022/07/02 19:00:34;;;;;;;1.32;0.70;;;;;;;23.54;53.18;100815.53;2091230;91;25841;-79
2022/07/02 19:03:58;;;;;;;1.45;0.70;;;;;;;23.43;53.13;100813.59;2065008;92;25712;-80
2022/07/02 19:07:24;;;;;;;2.08;0.90;;;;;;;23.37;53.38;100820.37;2069160;92;26497;-82
2022/07/02 19:15:23;;;;;;;2.02;0.98;;;;;;;23.28;53.30;100824.09;1947565;97;26676;-76
2022/07/02 19:18:50;;;;;;;3.20;1.32;;;;;;;23.20;53.53;100827.39;1882065;101;26041;-83
2022/07/02 19:22:42;;;;;;;4.35;1.67;;;;;;;23.27;53.46;100824.55;1885581;102;25913;-76
2022/07/02 19:33:34;;;;;;;6.22;2.25;;;;;;;23.30;53.67;100833.80;1927210;100;25824;-77
2022/07/02 19:36:55;;;;;;;5.03;2.02;;;;;;;23.36;53.54;100833.27;1940686;99;25796;-79
2022/07/02 19:40:18;;;;;;;3.60;1.60;;;;;;;23.28;53.62;100832.08;1938673;99;25956;-79
2022/07/02 19:44:09;;;;;;;3.72;1.95;;;;;;;23.21;53.74;100837.98;1896000;101;25819;-77
2022/07/02 19:47:36;;;;;;;1.82;0.65;;;;;;;23.18;54.01;100833.19;1820494;103;44537;-78
2022/07/02 19:50:56;;;;;;;6.62;1.20;;;;;;;23.19;54.13;100826.98;1852274;103;26379;-78
2022/07/02 19:54:23;;;;;;;5.40;1.98;;;;;;;23.12;54.32;100830.22;1908879;100;26074;-79
2022/07/02 19:57:49;;;;;;;1.85;0.85;;;;;;;23.09;54.59;100828.95;1914655;101;26026;-78
2022/07/02 20:01:12;;;;;;;1.25;1.00;;;;;;;23.02;54.58;100829.98;1890507;101;25821;-80
2022/07/02 20:04:38;;;;;;;4.00;0.90;;;;;;;22.94;54.83;100831.91;1873465;102;26031;-76
2022/07/02 20:07:59;;;;;;;4.60;1.27;;;;;;;22.84;55.12;100826.73;1928857;100;26072;-75
2022/07/02 20:11:20;;;;;;;2.72;1.05;;;;;;;22.70;55.49;100839.42;1918926;101;26067;-76
2022/07/02 20:14:41;;;;;;;1.72;1.17;;;;;;;22.80;55.58;100837.47;1963853;95;31531;-77
2022/07/02 20:18:06;;;;;;;2.35;1.80;;;;;;;22.85;55.49;100827.64;2115062;86;26248;-77
2022/07/02 20:21:26;;;;;;;7.47;0.98;;;;;;;22.83;55.55;100834.30;2190775;87;26557;-76
2022/07/02 20:24:52;;;;;;;4.25;3.08;;;;;;;22.87;55.53;100822.69;2204417;87;25331;-76
2022/07/02 20:28:22;;;;;;;4.08;1.90;;;;;;;22.89;55.64;100821.34;2197390;87;25634;-76
2022/07/02 20:31:48;;;;;;;4.33;3.58;;;;;;;22.85;55.61;100820.99;2180386;88;25671;-76
2022/07/02 20:35:09;;;;;;;4.25;2.80;;;;;;;22.67;55.84;100816.02;2192200;87;25919;-74
2022/07/02 20:38:35;;;;;;;5.35;2.90;;;;;;;22.65;56.06;100821.38;2210945;87;26452;-78
2022/07/02 20:42:07;;;;;;;3.42;2.50;;;;;;;22.68;56.08;100822.66;2144287;88;25906;-81
2022/07/02 20:46:10;;;;;;;5.42;2.27;;;;;;;22.62;56.11;100824.97;2127628;90;26193;-82
2022/07/02 20:58:04;;;;;;;2.00;1.70;;;;;;;22.60;56.36;100831.20;2099244;91;25865;-83
2022/07/02 21:01:52;;;;;;;2.08;1.30;;;;;;;22.62;56.24;100824.09;2110920;86;26311;-83
2022/07/02 21:09:10;;;;;;;;;;;;;;;;;;;;;
2022/07/02 21:12:45;;;;;;;1.85;1.10;;;;;;;22.59;56.25;100834.32;2003241;96;25504;-81
2022/07/02 21:20:17;;;;;;;1.32;1.02;;;;;;;22.56;56.26;100836.16;1928222;97;25921;-87
2022/07/02 21:23:48;;;;;;;5.28;1.35;;;;;;;22.61;56.30;100836.94;1938688;95;26046;-82
2022/07/02 21:32:18;;;;;;;2.35;1.20;;;;;;;22.62;56.27;100842.70;1807153;105;31803;-91
2022/07/02 21:40:15;;;;;;;2.52;1.17;;;;;;;22.51;56.56;100837.59;1831945;104;25981;-85
2022/07/02 21:44:26;;;;;;;1.67;1.12;;;;;;;22.44;56.66;100837.70;1853612;103;26216;-85
2022/07/02 21:48:18;;;;;;;;;;;;;;;;;;;;;
2022/07/02 21:52:10;;;;;;;;;;;;;;;;;;;;;
2022/07/02 21:56:19;;;;;;;2.50;0.90;;;;;;;22.52;56.85;100841.12;1771945;108;26546;-79
2022/07/02 22:07:45;;;;;;;3.02;1.35;;;;;;;22.45;56.74;100834.16;1747048;110;34922;-90
2022/07/02 22:11:46;;;;;;;5.25;1.40;;;;;;;22.39;57.07;100825.84;1657007;115;26697;-85
2022/07/02 22:15:57;;;;;;;6.25;3.00;;;;;;;22.44;57.08;100829.73;1643069;113;26025;-89
2022/07/02 22:28:36;;;;;;;;;;;;;;;;;;;;;